createdAt,value
2019-06-26T00:00:28.394Z,1012.68
2019-06-26T00:05:24.159Z,1012.70
2019-06-26T00:10:20.131Z,1012.77
2019-06-26T00:15:16.031Z,1012.81
2019-06-26T00:20:12.058Z,1012.86
2019-06-26T00:25:07.955Z,1012.90
2019-06-26T00:30:03.954Z,1012.95
2019-06-26T00:34:59.988Z,1013.02
2019-06-26T00:39:55.903Z,1013.00
2019-06-26T00:44:51.769Z,1013.03
2019-06-26T00:49:47.757Z,1013.06
2019-06-26T00:54:43.757Z,1013.05
2019-06-26T00:59:39.904Z,1013.18
2019-06-26T01:04:35.758Z,1013.25
2019-06-26T01:09:31.730Z,1013.19
2019-06-26T01:14:27.894Z,1013.31
2019-06-26T01:19:23.992Z,1013.24
2019-06-26T01:24:20.833Z,1013.36
2019-06-26T01:29:16.537Z,1013.34
2019-06-26T01:34:12.358Z,1013.30
2019-06-26T01:39:08.175Z,1013.27
2019-06-26T01:44:14.457Z,1013.35
2019-06-26T01:49:05.241Z,1013.32
2019-06-26T01:54:01.167Z,1013.48
2019-06-26T01:58:57.087Z,1013.46
2019-06-26T02:03:53.149Z,1013.54
2019-06-26T02:08:48.951Z,1013.56
2019-06-26T02:13:44.976Z,1013.53
2019-06-26T02:18:40.966Z,1013.67
2019-06-26T02:23:36.957Z,1013.65
2019-06-26T02:28:32.819Z,1013.58
2019-06-26T02:33:28.914Z,1013.75
2019-06-26T02:38:24.849Z,1013.75
2019-06-26T02:43:21.743Z,1013.71
2019-06-26T02:48:18.738Z,1013.69
2019-06-26T02:53:14.468Z,1013.76
2019-06-26T02:58:10.305Z,1013.81
2019-06-26T03:03:06.015Z,1013.83
2019-06-26T03:08:02.290Z,1013.85
2019-06-26T03:12:58.382Z,1013.94
2019-06-26T03:17:55.947Z,1014.02
2019-06-26T03:22:51.751Z,1014.02
2019-06-26T03:27:47.670Z,1014.08
2019-06-26T03:32:43.614Z,1014.10
2019-06-26T03:37:39.571Z,1014.17
2019-06-26T03:42:36.589Z,1014.22
2019-06-26T03:47:32.346Z,1014.28
2019-06-26T03:52:29.377Z,1014.39
2019-06-26T03:57:25.131Z,1014.37
2019-06-26T04:02:21.093Z,1014.42
2019-06-26T04:07:17.265Z,1014.55
2019-06-26T04:12:13.196Z,1014.46
2019-06-26T04:17:09.231Z,1014.59
2019-06-26T04:22:05.189Z,1014.54
2019-06-26T04:27:01.162Z,1014.69
2019-06-26T04:31:58.158Z,1014.76
2019-06-26T04:36:54.169Z,1014.78
2019-06-26T04:41:51.889Z,1014.85
2019-06-26T04:46:49.410Z,1014.96
2019-06-26T04:51:45.717Z,1014.91
2019-06-26T04:56:42.471Z,1014.99
2019-06-26T05:01:40.100Z,1014.97
2019-06-26T05:06:36.921Z,1015.07
2019-06-26T05:11:33.704Z,1015.15
2019-06-26T05:16:30.328Z,1015.19
2019-06-26T05:21:27.498Z,1015.11
2019-06-26T05:26:23.904Z,1015.19
2019-06-26T05:31:20.164Z,1015.23
2019-06-26T05:36:16.715Z,1015.29
2019-06-26T05:41:13.158Z,1015.41
2019-06-26T05:46:10.456Z,1015.46
2019-06-26T05:51:07.503Z,1015.54
2019-06-26T05:56:03.227Z,1015.55
2019-06-26T06:00:58.600Z,1015.47
2019-06-26T06:05:54.126Z,1015.59
2019-06-26T06:10:48.911Z,1015.61
2019-06-26T06:15:44.714Z,1015.70
2019-06-26T06:20:40.336Z,1015.74
2019-06-26T06:25:36.290Z,1015.71
2019-06-26T06:30:32.253Z,1015.75
2019-06-26T06:35:28.254Z,1015.74
2019-06-26T06:40:25.174Z,1015.86
2019-06-26T06:45:20.738Z,1015.83
2019-06-26T06:50:16.688Z,1015.86
2019-06-26T06:55:12.534Z,1015.97
2019-06-26T07:00:09.509Z,1015.93
2019-06-26T07:05:05.031Z,1015.95
2019-06-26T07:10:01.133Z,1015.93
2019-06-26T07:14:57.266Z,1016.03
2019-06-26T07:19:53.358Z,1016.04
2019-06-26T07:24:49.471Z,1016.16
2019-06-26T07:29:45.378Z,1016.27
2019-06-26T07:34:41.441Z,1016.33
2019-06-26T07:39:37.574Z,1016.37
2019-06-26T07:44:33.738Z,1016.33
2019-06-26T07:49:30.264Z,1016.51
2019-06-26T07:54:29.956Z,1016.45
2019-06-26T07:59:29.519Z,1016.51
2019-06-26T08:04:26.449Z,1016.52
2019-06-26T08:09:23.491Z,1016.57
2019-06-26T08:14:20.615Z,1016.55
2019-06-26T08:19:17.610Z,1016.48
2019-06-26T08:24:14.545Z,1016.55
2019-06-26T08:29:11.032Z,1016.57
2019-06-26T08:34:07.649Z,1016.54
2019-06-26T08:39:04.136Z,1016.64
2019-06-26T08:44:01.502Z,1016.74
2019-06-26T08:48:57.397Z,1016.80
2019-06-26T08:53:53.609Z,1016.87
2019-06-26T08:58:49.977Z,1016.86
2019-06-26T09:03:46.554Z,1016.92
2019-06-26T09:08:42.691Z,1016.99
2019-06-26T09:13:40.090Z,1017.00
2019-06-26T09:18:36.365Z,1017.02
2019-06-26T09:23:32.304Z,1017.05
2019-06-26T09:28:28.689Z,1017.17
2019-06-26T09:33:24.708Z,1017.16
2019-06-26T09:38:20.813Z,1017.24
2019-06-26T09:43:16.841Z,1017.24
2019-06-26T09:48:12.650Z,1017.25
2019-06-26T09:53:08.786Z,1017.25
2019-06-26T09:58:06.098Z,1017.26
2019-06-26T10:03:02.010Z,1017.25
2019-06-26T10:07:58.201Z,1017.20
2019-06-26T10:12:54.166Z,1017.16
2019-06-26T10:17:50.093Z,1017.22
2019-06-26T10:22:45.634Z,1017.16
2019-06-26T10:27:42.679Z,1017.23
2019-06-26T10:32:39.545Z,1017.14
2019-06-26T10:37:35.481Z,1017.20
2019-06-26T10:42:31.533Z,1017.28
2019-06-26T10:47:27.960Z,1017.31
2019-06-26T10:52:24.447Z,1017.32
2019-06-26T10:57:20.793Z,1017.44
2019-06-26T11:02:17.207Z,1017.42
2019-06-26T11:07:13.358Z,1017.18
2019-06-26T11:12:09.792Z,1017.28
2019-06-26T11:17:06.259Z,1017.37
2019-06-26T11:22:03.068Z,1017.40
2019-06-26T11:26:59.275Z,1017.41
2019-06-26T11:31:55.419Z,1017.45
2019-06-26T11:37:03.017Z,1017.48
2019-06-26T11:41:50.749Z,1017.54
2019-06-26T11:46:47.991Z,1017.47
2019-06-26T11:51:43.938Z,1017.37
2019-06-26T11:56:40.420Z,1017.27
2019-06-26T12:01:36.699Z,1017.35
2019-06-26T12:06:32.786Z,1017.26
2019-06-26T12:11:28.524Z,1017.28
2019-06-26T12:16:23.986Z,1017.29
2019-06-26T12:21:20.202Z,1017.23
2019-06-26T12:26:16.136Z,1017.21
2019-06-26T12:31:11.979Z,1017.03
2019-06-26T12:36:08.304Z,1017.06
2019-06-26T12:41:03.556Z,1017.01
2019-06-26T12:46:00.011Z,1017.11
2019-06-26T12:50:56.040Z,1017.18
2019-06-26T12:55:51.893Z,1017.15
2019-06-26T13:00:48.427Z,1017.22
2019-06-26T13:05:44.463Z,1017.27
2019-06-26T13:10:49.595Z,1017.23
2019-06-26T13:15:39.663Z,1017.29
2019-06-26T13:20:51.604Z,1017.22
2019-06-26T13:25:34.636Z,1017.22
2019-06-26T13:30:30.617Z,1017.18
2019-06-26T13:35:27.886Z,1017.27
2019-06-26T13:40:23.515Z,1017.28
2019-06-26T13:45:18.965Z,1017.36
2019-06-26T13:50:13.968Z,1017.35
2019-06-26T13:55:09.691Z,1017.25
2019-06-26T14:00:05.617Z,1017.30
2019-06-26T14:05:00.921Z,1017.22
2019-06-26T14:09:57.188Z,1017.24
2019-06-26T14:14:57.841Z,1017.27
2019-06-26T14:19:53.084Z,1017.30
2019-06-26T14:24:49.772Z,1017.16
2019-06-26T14:29:46.700Z,1017.16
2019-06-26T14:34:42.098Z,1017.16
2019-06-26T14:39:40.880Z,1017.08
2019-06-26T14:44:36.314Z,1017.09
2019-06-26T14:49:32.140Z,1017.19
2019-06-26T14:54:27.942Z,1017.16
2019-06-26T14:59:23.867Z,1017.23
2019-06-26T15:04:19.896Z,1017.31
2019-06-26T15:09:15.845Z,1017.29
2019-06-26T15:14:12.808Z,1017.41
2019-06-26T15:19:08.486Z,1017.34
2019-06-26T15:24:04.277Z,1017.26
2019-06-26T15:29:01.135Z,1017.31
2019-06-26T15:33:57.911Z,1017.24
2019-06-26T15:38:53.376Z,1017.30
2019-06-26T15:43:50.512Z,1017.37
2019-06-26T15:48:46.255Z,1017.26
2019-06-26T15:53:42.393Z,1017.36
2019-06-26T15:58:38.480Z,1017.34
2019-06-26T16:03:35.589Z,1017.23
2019-06-26T16:08:31.225Z,1017.27
2019-06-26T16:13:27.029Z,1017.38
2019-06-26T16:18:24.020Z,1017.35
2019-06-26T16:23:20.666Z,1017.43
2019-06-26T16:28:17.183Z,1017.44
2019-06-26T16:33:12.690Z,1017.55
2019-06-26T16:38:08.640Z,1017.54
2019-06-26T16:43:05.515Z,1017.64
2019-06-26T16:48:02.052Z,1017.58
2019-06-26T16:52:57.884Z,1017.74
2019-06-26T16:57:55.007Z,1017.81
2019-06-26T17:02:50.603Z,1017.93
2019-06-26T17:07:46.712Z,1017.87
2019-06-26T17:12:42.761Z,1017.93
2019-06-26T17:17:39.666Z,1018.03
2019-06-26T17:22:36.102Z,1018.06
2019-06-26T17:27:31.684Z,1018.23
2019-06-26T17:32:27.653Z,1018.17
2019-06-26T17:37:24.043Z,1018.19
2019-06-26T17:42:21.136Z,1018.24
2019-06-26T17:47:16.862Z,1018.22
2019-06-26T17:52:13.143Z,1018.21
2019-06-26T17:57:09.069Z,1018.29
2019-06-26T18:02:04.956Z,1018.28
2019-06-26T18:07:00.724Z,1018.30
2019-06-26T18:11:56.652Z,1018.37
2019-06-26T18:16:52.367Z,1018.40
2019-06-26T18:21:48.111Z,1018.39
2019-06-26T18:26:43.937Z,1018.50
2019-06-26T18:31:40.166Z,1018.63
2019-06-26T18:36:36.232Z,1018.54
2019-06-26T18:41:33.353Z,1018.47
2019-06-26T18:46:28.776Z,1018.60
2019-06-26T18:51:25.998Z,1018.60
2019-06-26T18:56:21.701Z,1018.64
2019-06-26T19:01:17.444Z,1018.61
2019-06-26T19:06:14.067Z,1018.66
2019-06-26T19:11:09.736Z,1018.78
2019-06-26T19:16:06.007Z,1018.72
2019-06-26T19:21:01.841Z,1018.91
2019-06-26T19:25:57.673Z,1018.99
2019-06-26T19:30:53.322Z,1018.99
2019-06-26T19:35:49.942Z,1019.08
2019-06-26T19:40:45.399Z,1019.18
2019-06-26T19:45:42.066Z,1019.25
2019-06-26T19:50:37.617Z,1019.30
2019-06-26T19:55:33.701Z,1019.44
2019-06-26T20:00:29.522Z,1019.43
2019-06-26T20:05:25.099Z,1019.49
2019-06-26T20:10:20.906Z,1019.53
2019-06-26T20:15:16.930Z,1019.52
2019-06-26T20:20:12.633Z,1019.66
2019-06-26T20:25:08.436Z,1019.64
2019-06-26T20:30:03.902Z,1019.66
2019-06-26T20:35:00.234Z,1019.64
2019-06-26T20:39:55.961Z,1019.67
2019-06-26T20:44:51.929Z,1019.76
2019-06-26T20:49:53.306Z,1019.65
2019-06-26T20:55:00.475Z,1019.84
2019-06-26T20:59:47.396Z,1019.76
2019-06-26T21:04:43.873Z,1019.83
2019-06-26T21:09:40.324Z,1019.78
2019-06-26T21:14:36.685Z,1019.74
2019-06-26T21:19:32.061Z,1019.82
2019-06-26T21:24:27.716Z,1019.74
2019-06-26T21:29:23.879Z,1019.77
2019-06-26T21:34:19.494Z,1019.93
2019-06-26T21:39:16.378Z,1020.01
2019-06-26T21:44:12.079Z,1019.99
2019-06-26T21:49:08.042Z,1020.05
2019-06-26T21:54:03.849Z,1020.22
2019-06-26T21:58:59.470Z,1020.29
2019-06-26T22:03:55.209Z,1020.33
2019-06-26T22:08:51.266Z,1020.35
2019-06-26T22:13:47.276Z,1020.43
2019-06-26T22:18:44.072Z,1020.45
2019-06-26T22:23:40.233Z,1020.54
2019-06-26T22:28:36.026Z,1020.59
2019-06-26T22:33:32.712Z,1020.60
2019-06-26T22:38:28.586Z,1020.59
2019-06-26T22:43:24.370Z,1020.70
2019-06-26T22:48:21.255Z,1020.65
2019-06-26T22:53:16.958Z,1020.67
2019-06-26T22:58:12.919Z,1020.69
2019-06-26T23:03:08.761Z,1020.70
2019-06-26T23:08:04.536Z,1020.69
2019-06-26T23:13:01.374Z,1020.76
2019-06-26T23:17:56.894Z,1020.73
2019-06-26T23:22:52.535Z,1020.69
2019-06-26T23:27:48.354Z,1020.78
2019-06-26T23:32:44.667Z,1020.77
2019-06-26T23:37:40.643Z,1020.78
2019-06-26T23:42:36.502Z,1020.69
2019-06-26T23:47:32.289Z,1020.78
2019-06-26T23:52:28.054Z,1020.86
2019-06-26T23:57:24.339Z,1020.79
